sensor_id;sensor_type;location;lat;lon;timestamp;P1;durP1;ratioP1;P2;durP2;ratioP2
43487;SDS011;29078;41.932;25.554;2022-10-31T00:01:30;4.97;;;3.47;;
43487;SDS011;29078;41.932;25.554;2022-10-31T00:04:00;5.95;;;3.72;;
43487;SDS011;29078;41.932;25.554;2022-10-31T00:06:26;6.00;;;3.85;;
43487;SDS011;29078;41.932;25.554;2022-10-31T00:08:53;5.35;;;2.95;;
43487;SDS011;29078;41.932;25.554;2022-10-31T00:11:20;7.32;;;3.33;;
43487;SDS011;29078;41.932;25.554;2022-10-31T00:13:46;5.40;;;3.17;;
43487;SDS011;29078;41.932;25.554;2022-10-31T00:16:16;5.60;;;3.47;;
43487;SDS011;29078;41.932;25.554;2022-10-31T00:18:42;6.28;;;3.67;;
43487;SDS011;29078;41.932;25.554;2022-10-31T00:21:08;6.82;;;3.72;;
43487;SDS011;29078;41.932;25.554;2022-10-31T00:23:34;7.15;;;3.55;;
43487;SDS011;29078;41.932;25.554;2022-10-31T00:26:00;6.20;;;3.30;;
43487;SDS011;29078;41.932;25.554;2022-10-31T00:28:26;6.60;;;3.65;;
43487;SDS011;29078;41.932;25.554;2022-10-31T00:30:52;6.82;;;3.92;;
43487;SDS011;29078;41.932;25.554;2022-10-31T00:33:17;6.22;;;3.60;;
43487;SDS011;29078;41.932;25.554;2022-10-31T00:35:48;7.88;;;3.88;;
43487;SDS011;29078;41.932;25.554;2022-10-31T00:38:14;7.35;;;4.18;;
43487;SDS011;29078;41.932;25.554;2022-10-31T00:40:40;9.50;;;4.50;;
43487;SDS011;29078;41.932;25.554;2022-10-31T00:43:05;9.93;;;4.20;;
43487;SDS011;29078;41.932;25.554;2022-10-31T00:45:31;7.70;;;4.22;;
43487;SDS011;29078;41.932;25.554;2022-10-31T00:47:56;6.68;;;3.60;;
43487;SDS011;29078;41.932;25.554;2022-10-31T00:50:21;7.10;;;4.10;;
43487;SDS011;29078;41.932;25.554;2022-10-31T00:52:47;5.47;;;3.83;;
43487;SDS011;29078;41.932;25.554;2022-10-31T00:55:12;7.43;;;3.78;;
43487;SDS011;29078;41.932;25.554;2022-10-31T00:57:37;6.72;;;3.42;;
43487;SDS011;29078;41.932;25.554;2022-10-31T01:00:03;9.65;;;3.65;;
43487;SDS011;29078;41.932;25.554;2022-10-31T01:02:29;8.70;;;4.00;;
43487;SDS011;29078;41.932;25.554;2022-10-31T01:04:55;6.32;;;3.70;;
43487;SDS011;29078;41.932;25.554;2022-10-31T01:07:20;8.88;;;3.83;;
43487;SDS011;29078;41.932;25.554;2022-10-31T01:09:45;5.70;;;3.92;;
43487;SDS011;29078;41.932;25.554;2022-10-31T01:12:11;5.32;;;3.60;;
43487;SDS011;29078;41.932;25.554;2022-10-31T01:14:36;4.63;;;3.33;;
43487;SDS011;29078;41.932;25.554;2022-10-31T01:17:02;9.90;;;3.63;;
43487;SDS011;29078;41.932;25.554;2022-10-31T01:19:27;7.07;;;3.70;;
43487;SDS011;29078;41.932;25.554;2022-10-31T01:21:56;6.82;;;3.50;;
43487;SDS011;29078;41.932;25.554;2022-10-31T01:24:21;7.80;;;3.97;;
43487;SDS011;29078;41.932;25.554;2022-10-31T01:26:47;5.50;;;3.30;;
43487;SDS011;29078;41.932;25.554;2022-10-31T01:29:12;3.92;;;3.20;;
43487;SDS011;29078;41.932;25.554;2022-10-31T01:31:38;6.03;;;3.20;;
43487;SDS011;29078;41.932;25.554;2022-10-31T01:34:04;7.07;;;3.00;;
43487;SDS011;29078;41.932;25.554;2022-10-31T01:36:35;3.97;;;2.70;;
43487;SDS011;29078;41.932;25.554;2022-10-31T01:39:06;4.47;;;2.40;;
43487;SDS011;29078;41.932;25.554;2022-10-31T01:41:35;4.95;;;2.63;;
43487;SDS011;29078;41.932;25.554;2022-10-31T01:49:05;4.40;;;3.13;;
43487;SDS011;29078;41.932;25.554;2022-10-31T01:51:41;4.60;;;2.40;;
43487;SDS011;29078;41.932;25.554;2022-10-31T01:54:16;4.28;;;2.83;;
43487;SDS011;29078;41.932;25.554;2022-10-31T01:56:46;6.70;;;3.20;;
43487;SDS011;29078;41.932;25.554;2022-10-31T01:59:15;3.95;;;2.60;;
43487;SDS011;29078;41.932;25.554;2022-10-31T02:01:45;5.10;;;2.75;;
43487;SDS011;29078;41.932;25.554;2022-10-31T02:04:11;5.85;;;3.00;;
43487;SDS011;29078;41.932;25.554;2022-10-31T02:09:14;7.63;;;2.92;;
43487;SDS011;29078;41.932;25.554;2022-10-31T02:11:41;6.57;;;3.00;;
43487;SDS011;29078;41.932;25.554;2022-10-31T02:14:09;5.05;;;2.97;;
43487;SDS011;29078;41.932;25.554;2022-10-31T02:16:34;8.55;;;3.10;;
43487;SDS011;29078;41.932;25.554;2022-10-31T02:19:00;6.65;;;4.20;;
43487;SDS011;29078;41.932;25.554;2022-10-31T02:35:25;13.38;;;8.40;;
43487;SDS011;29078;41.932;25.554;2022-10-31T02:46:47;14.48;;;8.38;;
43487;SDS011;29078;41.932;25.554;2022-10-31T02:49:22;17.55;;;8.13;;
43487;SDS011;29078;41.932;25.554;2022-10-31T02:51:52;18.98;;;9.15;;
43487;SDS011;29078;41.932;25.554;2022-10-31T02:54:19;18.60;;;8.23;;
43487;SDS011;29078;41.932;25.554;2022-10-31T02:56:47;14.75;;;8.57;;
43487;SDS011;29078;41.932;25.554;2022-10-31T02:59:16;17.23;;;9.30;;
43487;SDS011;29078;41.932;25.554;2022-10-31T03:01:48;17.20;;;8.98;;
43487;SDS011;29078;41.932;25.554;2022-10-31T03:07:23;16.67;;;8.80;;
43487;SDS011;29078;41.932;25.554;2022-10-31T03:12:33;16.52;;;9.18;;
43487;SDS011;29078;41.932;25.554;2022-10-31T03:15:14;19.33;;;8.98;;
43487;SDS011;29078;41.932;25.554;2022-10-31T03:20:42;15.23;;;8.50;;
43487;SDS011;29078;41.932;25.554;2022-10-31T03:23:13;16.13;;;8.43;;
43487;SDS011;29078;41.932;25.554;2022-10-31T03:25:41;17.13;;;8.02;;
43487;SDS011;29078;41.932;25.554;2022-10-31T03:28:08;15.00;;;7.35;;
43487;SDS011;29078;41.932;25.554;2022-10-31T03:30:37;14.02;;;7.50;;
43487;SDS011;29078;41.932;25.554;2022-10-31T03:33:06;13.90;;;7.47;;
43487;SDS011;29078;41.932;25.554;2022-10-31T03:35:36;16.98;;;7.38;;
43487;SDS011;29078;41.932;25.554;2022-10-31T03:38:03;15.18;;;7.75;;
43487;SDS011;29078;41.932;25.554;2022-10-31T03:40:29;13.82;;;6.88;;
43487;SDS011;29078;41.932;25.554;2022-10-31T03:42:58;16.50;;;8.13;;
43487;SDS011;29078;41.932;25.554;2022-10-31T03:45:27;8.48;;;5.97;;
43487;SDS011;29078;41.932;25.554;2022-10-31T03:47:55;12.35;;;7.45;;
43487;SDS011;29078;41.932;25.554;2022-10-31T03:50:23;12.15;;;7.28;;
43487;SDS011;29078;41.932;25.554;2022-10-31T03:53:01;15.02;;;7.20;;
43487;SDS011;29078;41.932;25.554;2022-10-31T03:58:08;12.52;;;7.10;;
43487;SDS011;29078;41.932;25.554;2022-10-31T04:00:39;9.45;;;6.55;;
43487;SDS011;29078;41.932;25.554;2022-10-31T04:03:15;17.70;;;7.18;;
43487;SDS011;29078;41.932;25.554;2022-10-31T04:05:45;10.57;;;5.85;;
43487;SDS011;29078;41.932;25.554;2022-10-31T04:08:15;12.23;;;6.65;;
43487;SDS011;29078;41.932;25.554;2022-10-31T04:10:43;13.15;;;6.90;;
43487;SDS011;29078;41.932;25.554;2022-10-31T04:13:14;15.75;;;6.93;;
43487;SDS011;29078;41.932;25.554;2022-10-31T04:15:42;14.10;;;7.47;;
43487;SDS011;29078;41.932;25.554;2022-10-31T04:18:09;11.48;;;6.32;;
43487;SDS011;29078;41.932;25.554;2022-10-31T04:20:39;13.57;;;7.07;;
43487;SDS011;29078;41.932;25.554;2022-10-31T04:23:27;13.33;;;7.03;;
43487;SDS011;29078;41.932;25.554;2022-10-31T04:25:52;10.02;;;7.47;;
43487;SDS011;29078;41.932;25.554;2022-10-31T04:28:17;12.73;;;6.85;;
43487;SDS011;29078;41.932;25.554;2022-10-31T04:30:43;14.20;;;6.82;;
43487;SDS011;29078;41.932;25.554;2022-10-31T04:33:09;14.73;;;7.40;;
43487;SDS011;29078;41.932;25.554;2022-10-31T04:35:34;17.73;;;7.53;;
43487;SDS011;29078;41.932;25.554;2022-10-31T04:38:00;16.38;;;8.25;;
43487;SDS011;29078;41.932;25.554;2022-10-31T04:40:25;15.93;;;7.60;;
43487;SDS011;29078;41.932;25.554;2022-10-31T04:42:50;13.98;;;7.88;;
43487;SDS011;29078;41.932;25.554;2022-10-31T04:45:16;19.15;;;8.00;;
43487;SDS011;29078;41.932;25.554;2022-10-31T04:47:41;13.43;;;7.78;;
43487;SDS011;29078;41.932;25.554;2022-10-31T04:50:07;13.20;;;6.93;;
43487;SDS011;29078;41.932;25.554;2022-10-31T04:52:38;17.17;;;7.63;;
43487;SDS011;29078;41.932;25.554;2022-10-31T04:55:04;12.18;;;7.43;;
43487;SDS011;29078;41.932;25.554;2022-10-31T04:57:29;17.17;;;8.00;;
43487;SDS011;29078;41.932;25.554;2022-10-31T04:59:55;13.57;;;8.27;;
43487;SDS011;29078;41.932;25.554;2022-10-31T05:02:20;15.63;;;7.18;;
43487;SDS011;29078;41.932;25.554;2022-10-31T05:04:46;12.43;;;7.45;;
43487;SDS011;29078;41.932;25.554;2022-10-31T05:07:11;18.33;;;8.48;;
43487;SDS011;29078;41.932;25.554;2022-10-31T05:09:36;20.13;;;7.65;;
43487;SDS011;29078;41.932;25.554;2022-10-31T05:12:02;12.27;;;8.30;;
43487;SDS011;29078;41.932;25.554;2022-10-31T05:14:27;14.43;;;7.82;;
43487;SDS011;29078;41.932;25.554;2022-10-31T05:16:53;17.40;;;8.40;;
43487;SDS011;29078;41.932;25.554;2022-10-31T05:19:18;17.67;;;8.73;;
43487;SDS011;29078;41.932;25.554;2022-10-31T05:21:43;20.70;;;9.95;;
43487;SDS011;29078;41.932;25.554;2022-10-31T05:24:09;20.13;;;10.80;;
43487;SDS011;29078;41.932;25.554;2022-10-31T05:26:34;18.35;;;11.00;;
43487;SDS011;29078;41.932;25.554;2022-10-31T05:29:00;20.48;;;11.57;;
43487;SDS011;29078;41.932;25.554;2022-10-31T05:31:25;24.73;;;12.25;;
43487;SDS011;29078;41.932;25.554;2022-10-31T05:33:51;25.27;;;11.52;;
43487;SDS011;29078;41.932;25.554;2022-10-31T05:36:16;22.25;;;11.70;;
43487;SDS011;29078;41.932;25.554;2022-10-31T05:38:41;19.63;;;10.80;;
43487;SDS011;29078;41.932;25.554;2022-10-31T05:41:07;20.48;;;9.57;;
43487;SDS011;29078;41.932;25.554;2022-10-31T05:43:32;15.80;;;8.90;;
43487;SDS011;29078;41.932;25.554;2022-10-31T05:45:58;13.73;;;8.90;;
43487;SDS011;29078;41.932;25.554;2022-10-31T05:48:23;17.70;;;10.73;;
43487;SDS011;29078;41.932;25.554;2022-10-31T05:50:49;16.77;;;9.05;;
43487;SDS011;29078;41.932;25.554;2022-10-31T05:53:14;20.15;;;9.05;;
43487;SDS011;29078;41.932;25.554;2022-10-31T05:55:40;19.17;;;8.77;;
43487;SDS011;29078;41.932;25.554;2022-10-31T05:58:07;18.73;;;9.95;;
43487;SDS011;29078;41.932;25.554;2022-10-31T06:00:33;15.05;;;7.43;;
43487;SDS011;29078;41.932;25.554;2022-10-31T06:03:05;16.73;;;8.10;;
43487;SDS011;29078;41.932;25.554;2022-10-31T06:05:32;19.75;;;8.93;;
43487;SDS011;29078;41.932;25.554;2022-10-31T06:07:57;16.88;;;8.10;;
43487;SDS011;29078;41.932;25.554;2022-10-31T06:10:23;12.05;;;5.60;;
43487;SDS011;29078;41.932;25.554;2022-10-31T06:12:49;9.48;;;6.07;;
43487;SDS011;29078;41.932;25.554;2022-10-31T06:15:15;11.48;;;7.15;;
43487;SDS011;29078;41.932;25.554;2022-10-31T06:17:42;12.63;;;8.13;;
43487;SDS011;29078;41.932;25.554;2022-10-31T06:20:08;13.00;;;5.40;;
43487;SDS011;29078;41.932;25.554;2022-10-31T06:22:34;12.70;;;5.40;;
43487;SDS011;29078;41.932;25.554;2022-10-31T06:25:00;8.60;;;5.88;;
43487;SDS011;29078;41.932;25.554;2022-10-31T06:27:25;7.57;;;5.55;;
43487;SDS011;29078;41.932;25.554;2022-10-31T06:29:51;14.13;;;5.85;;
43487;SDS011;29078;41.932;25.554;2022-10-31T06:32:17;11.02;;;5.55;;
43487;SDS011;29078;41.932;25.554;2022-10-31T06:34:43;13.50;;;5.93;;
43487;SDS011;29078;41.932;25.554;2022-10-31T06:37:09;9.93;;;5.65;;
43487;SDS011;29078;41.932;25.554;2022-10-31T06:39:36;10.15;;;4.80;;
43487;SDS011;29078;41.932;25.554;2022-10-31T06:42:02;14.02;;;6.68;;
43487;SDS011;29078;41.932;25.554;2022-10-31T06:44:28;8.52;;;4.40;;
43487;SDS011;29078;41.932;25.554;2022-10-31T06:46:54;8.48;;;5.95;;
43487;SDS011;29078;41.932;25.554;2022-10-31T06:49:19;9.40;;;5.18;;
43487;SDS011;29078;41.932;25.554;2022-10-31T06:51:48;6.88;;;4.22;;
43487;SDS011;29078;41.932;25.554;2022-10-31T06:54:14;10.55;;;4.93;;
43487;SDS011;29078;41.932;25.554;2022-10-31T06:56:39;10.32;;;6.72;;
43487;SDS011;29078;41.932;25.554;2022-10-31T06:59:05;12.75;;;4.85;;
43487;SDS011;29078;41.932;25.554;2022-10-31T07:01:31;9.48;;;5.90;;
43487;SDS011;29078;41.932;25.554;2022-10-31T07:03:56;9.60;;;5.65;;
43487;SDS011;29078;41.932;25.554;2022-10-31T07:06:21;13.40;;;5.30;;
43487;SDS011;29078;41.932;25.554;2022-10-31T07:08:47;15.85;;;6.70;;
43487;SDS011;29078;41.932;25.554;2022-10-31T07:11:12;17.38;;;7.55;;
43487;SDS011;29078;41.932;25.554;2022-10-31T07:13:38;14.90;;;6.22;;
43487;SDS011;29078;41.932;25.554;2022-10-31T07:16:04;16.20;;;6.60;;
43487;SDS011;29078;41.932;25.554;2022-10-31T07:18:31;12.45;;;6.43;;
43487;SDS011;29078;41.932;25.554;2022-10-31T07:20:57;9.75;;;5.40;;
43487;SDS011;29078;41.932;25.554;2022-10-31T07:23:23;10.27;;;5.25;;
43487;SDS011;29078;41.932;25.554;2022-10-31T07:25:48;7.63;;;4.65;;
43487;SDS011;29078;41.932;25.554;2022-10-31T07:28:19;7.60;;;5.32;;
43487;SDS011;29078;41.932;25.554;2022-10-31T07:30:48;7.28;;;4.40;;
43487;SDS011;29078;41.932;25.554;2022-10-31T07:33:15;7.72;;;5.57;;
43487;SDS011;29078;41.932;25.554;2022-10-31T07:35:40;5.75;;;4.13;;
43487;SDS011;29078;41.932;25.554;2022-10-31T07:38:09;9.38;;;4.75;;
43487;SDS011;29078;41.932;25.554;2022-10-31T07:40:36;7.13;;;4.50;;
43487;SDS011;29078;41.932;25.554;2022-10-31T07:43:02;12.55;;;4.50;;
43487;SDS011;29078;41.932;25.554;2022-10-31T07:45:28;7.07;;;5.20;;
43487;SDS011;29078;41.932;25.554;2022-10-31T07:47:53;7.30;;;4.15;;
43487;SDS011;29078;41.932;25.554;2022-10-31T07:50:20;10.90;;;5.03;;
43487;SDS011;29078;41.932;25.554;2022-10-31T07:52:46;11.93;;;5.10;;
43487;SDS011;29078;41.932;25.554;2022-10-31T07:55:12;10.35;;;6.05;;
43487;SDS011;29078;41.932;25.554;2022-10-31T07:57:38;9.43;;;4.72;;
43487;SDS011;29078;41.932;25.554;2022-10-31T08:00:07;8.93;;;5.40;;
43487;SDS011;29078;41.932;25.554;2022-10-31T08:02:34;8.23;;;5.10;;
43487;SDS011;29078;41.932;25.554;2022-10-31T08:05:00;8.20;;;4.40;;
43487;SDS011;29078;41.932;25.554;2022-10-31T08:07:27;9.43;;;4.90;;
43487;SDS011;29078;41.932;25.554;2022-10-31T08:09:53;9.20;;;4.80;;
43487;SDS011;29078;41.932;25.554;2022-10-31T08:12:18;12.07;;;4.95;;
43487;SDS011;29078;41.932;25.554;2022-10-31T08:14:44;9.25;;;5.55;;
43487;SDS011;29078;41.932;25.554;2022-10-31T08:17:10;10.10;;;4.57;;
43487;SDS011;29078;41.932;25.554;2022-10-31T08:19:35;9.65;;;4.93;;
43487;SDS011;29078;41.932;25.554;2022-10-31T08:22:01;7.95;;;4.20;;
43487;SDS011;29078;41.932;25.554;2022-10-31T08:24:26;8.80;;;4.43;;
43487;SDS011;29078;41.932;25.554;2022-10-31T08:26:52;10.82;;;4.35;;
43487;SDS011;29078;41.932;25.554;2022-10-31T08:29:17;8.93;;;4.80;;
43487;SDS011;29078;41.932;25.554;2022-10-31T08:31:43;5.43;;;3.92;;
43487;SDS011;29078;41.932;25.554;2022-10-31T08:34:08;9.35;;;5.60;;
43487;SDS011;29078;41.932;25.554;2022-10-31T08:36:33;8.77;;;4.15;;
43487;SDS011;29078;41.932;25.554;2022-10-31T08:38:59;6.70;;;4.32;;
43487;SDS011;29078;41.932;25.554;2022-10-31T08:41:25;6.68;;;4.00;;
43487;SDS011;29078;41.932;25.554;2022-10-31T08:43:50;6.70;;;3.80;;
43487;SDS011;29078;41.932;25.554;2022-10-31T08:46:16;7.63;;;3.38;;
43487;SDS011;29078;41.932;25.554;2022-10-31T08:48:41;17.02;;;11.20;;
43487;SDS011;29078;41.932;25.554;2022-10-31T08:51:07;6.47;;;4.25;;
43487;SDS011;29078;41.932;25.554;2022-10-31T08:53:34;9.18;;;4.57;;
43487;SDS011;29078;41.932;25.554;2022-10-31T08:55:59;7.53;;;5.10;;
43487;SDS011;29078;41.932;25.554;2022-10-31T08:58:24;8.05;;;4.32;;
43487;SDS011;29078;41.932;25.554;2022-10-31T09:00:51;8.15;;;4.03;;
43487;SDS011;29078;41.932;25.554;2022-10-31T09:03:22;9.43;;;4.20;;
43487;SDS011;29078;41.932;25.554;2022-10-31T09:05:49;12.65;;;4.53;;
43487;SDS011;29078;41.932;25.554;2022-10-31T09:08:19;8.23;;;4.65;;
43487;SDS011;29078;41.932;25.554;2022-10-31T09:10:44;14.52;;;10.38;;
43487;SDS011;29078;41.932;25.554;2022-10-31T09:13:11;8.65;;;5.57;;
43487;SDS011;29078;41.932;25.554;2022-10-31T09:15:39;8.93;;;5.45;;
43487;SDS011;29078;41.932;25.554;2022-10-31T09:18:07;6.53;;;4.07;;
43487;SDS011;29078;41.932;25.554;2022-10-31T09:20:35;8.23;;;5.10;;
43487;SDS011;29078;41.932;25.554;2022-10-31T09:23:03;8.55;;;4.32;;
43487;SDS011;29078;41.932;25.554;2022-10-31T09:25:34;8.40;;;4.00;;
43487;SDS011;29078;41.932;25.554;2022-10-31T09:28:01;9.70;;;4.72;;
43487;SDS011;29078;41.932;25.554;2022-10-31T09:30:27;18.38;;;4.90;;
43487;SDS011;29078;41.932;25.554;2022-10-31T09:32:57;8.02;;;4.18;;
43487;SDS011;29078;41.932;25.554;2022-10-31T09:35:26;6.20;;;3.92;;
43487;SDS011;29078;41.932;25.554;2022-10-31T09:37:59;9.38;;;4.10;;
43487;SDS011;29078;41.932;25.554;2022-10-31T09:40:35;10.05;;;4.47;;
43487;SDS011;29078;41.932;25.554;2022-10-31T09:43:19;14.32;;;6.68;;
43487;SDS011;29078;41.932;25.554;2022-10-31T09:46:17;10.52;;;5.38;;
43487;SDS011;29078;41.932;25.554;2022-10-31T09:51:24;8.68;;;4.40;;
43487;SDS011;29078;41.932;25.554;2022-10-31T09:53:58;13.88;;;11.30;;
43487;SDS011;29078;41.932;25.554;2022-10-31T09:56:30;12.00;;;6.93;;
43487;SDS011;29078;41.932;25.554;2022-10-31T09:58:58;11.02;;;4.85;;
43487;SDS011;29078;41.932;25.554;2022-10-31T10:01:33;9.48;;;4.43;;
43487;SDS011;29078;41.932;25.554;2022-10-31T10:06:46;12.07;;;6.85;;
43487;SDS011;29078;41.932;25.554;2022-10-31T10:09:14;11.05;;;5.63;;
43487;SDS011;29078;41.932;25.554;2022-10-31T10:20:16;10.63;;;6.28;;
43487;SDS011;29078;41.932;25.554;2022-10-31T10:22:56;9.15;;;7.63;;
43487;SDS011;29078;41.932;25.554;2022-10-31T10:25:41;9.95;;;5.38;;
43487;SDS011;29078;41.932;25.554;2022-10-31T10:28:22;15.38;;;10.25;;
43487;SDS011;29078;41.932;25.554;2022-10-31T10:30:52;8.30;;;4.68;;
43487;SDS011;29078;41.932;25.554;2022-10-31T10:33:28;7.97;;;4.75;;
43487;SDS011;29078;41.932;25.554;2022-10-31T10:36:20;8.13;;;4.13;;
43487;SDS011;29078;41.932;25.554;2022-10-31T10:41:18;7.35;;;4.10;;
43487;SDS011;29078;41.932;25.554;2022-10-31T10:43:45;7.85;;;6.30;;
43487;SDS011;29078;41.932;25.554;2022-10-31T10:59:57;6.15;;;4.72;;
43487;SDS011;29078;41.932;25.554;2022-10-31T11:02:27;7.28;;;5.07;;
43487;SDS011;29078;41.932;25.554;2022-10-31T11:04:59;10.88;;;4.97;;
43487;SDS011;29078;41.932;25.554;2022-10-31T11:07:36;10.98;;;5.03;;
43487;SDS011;29078;41.932;25.554;2022-10-31T11:10:11;9.60;;;5.25;;
43487;SDS011;29078;41.932;25.554;2022-10-31T11:12:41;6.90;;;4.47;;
43487;SDS011;29078;41.932;25.554;2022-10-31T11:15:22;8.57;;;5.03;;
43487;SDS011;29078;41.932;25.554;2022-10-31T11:17:52;9.20;;;5.40;;
43487;SDS011;29078;41.932;25.554;2022-10-31T11:22:45;7.35;;;5.78;;
43487;SDS011;29078;41.932;25.554;2022-10-31T11:25:33;10.05;;;6.60;;
43487;SDS011;29078;41.932;25.554;2022-10-31T11:27:58;10.90;;;7.80;;
43487;SDS011;29078;41.932;25.554;2022-10-31T11:30:25;9.93;;;6.55;;
43487;SDS011;29078;41.932;25.554;2022-10-31T11:32:50;8.57;;;6.35;;
43487;SDS011;29078;41.932;25.554;2022-10-31T11:35:17;6.75;;;4.45;;
43487;SDS011;29078;41.932;25.554;2022-10-31T11:37:45;8.10;;;4.30;;
43487;SDS011;29078;41.932;25.554;2022-10-31T11:40:22;7.75;;;4.63;;
43487;SDS011;29078;41.932;25.554;2022-10-31T11:42:51;11.10;;;6.15;;
43487;SDS011;29078;41.932;25.554;2022-10-31T11:45:28;9.75;;;4.47;;
43487;SDS011;29078;41.932;25.554;2022-10-31T11:47:59;7.75;;;4.22;;
43487;SDS011;29078;41.932;25.554;2022-10-31T11:53:01;4.32;;;3.85;;
43487;SDS011;29078;41.932;25.554;2022-10-31T11:55:32;8.00;;;6.05;;
43487;SDS011;29078;41.932;25.554;2022-10-31T11:58:00;7.63;;;6.20;;
43487;SDS011;29078;41.932;25.554;2022-10-31T12:00:27;8.23;;;5.07;;
43487;SDS011;29078;41.932;25.554;2022-10-31T12:05:50;8.88;;;4.90;;
43487;SDS011;29078;41.932;25.554;2022-10-31T12:08:20;8.18;;;5.47;;
43487;SDS011;29078;41.932;25.554;2022-10-31T12:16:20;8.90;;;4.45;;
43487;SDS011;29078;41.932;25.554;2022-10-31T12:19:09;7.22;;;4.15;;
43487;SDS011;29078;41.932;25.554;2022-10-31T12:29:52;6.65;;;3.92;;
43487;SDS011;29078;41.932;25.554;2022-10-31T12:43:48;7.82;;;4.07;;
43487;SDS011;29078;41.932;25.554;2022-10-31T12:52:30;6.93;;;4.65;;
43487;SDS011;29078;41.932;25.554;2022-10-31T12:57:53;6.85;;;4.18;;
43487;SDS011;29078;41.932;25.554;2022-10-31T13:00:23;7.03;;;4.45;;
43487;SDS011;29078;41.932;25.554;2022-10-31T13:05:46;8.77;;;4.82;;
43487;SDS011;29078;41.932;25.554;2022-10-31T13:13:40;9.05;;;5.60;;
43487;SDS011;29078;41.932;25.554;2022-10-31T13:18:59;9.40;;;5.72;;
43487;SDS011;29078;41.932;25.554;2022-10-31T13:21:30;8.88;;;5.85;;
43487;SDS011;29078;41.932;25.554;2022-10-31T13:24:03;7.68;;;5.70;;
43487;SDS011;29078;41.932;25.554;2022-10-31T13:26:41;7.90;;;5.00;;
43487;SDS011;29078;41.932;25.554;2022-10-31T13:31:41;7.63;;;5.68;;
43487;SDS011;29078;41.932;25.554;2022-10-31T13:34:16;8.48;;;4.70;;
43487;SDS011;29078;41.932;25.554;2022-10-31T13:37:04;7.10;;;4.78;;
43487;SDS011;29078;41.932;25.554;2022-10-31T13:40:14;8.02;;;5.70;;
43487;SDS011;29078;41.932;25.554;2022-10-31T13:42:43;12.30;;;6.88;;
43487;SDS011;29078;41.932;25.554;2022-10-31T13:45:14;10.18;;;6.25;;
43487;SDS011;29078;41.932;25.554;2022-10-31T13:47:42;9.93;;;5.10;;
43487;SDS011;29078;41.932;25.554;2022-10-31T13:50:26;8.05;;;5.22;;
43487;SDS011;29078;41.932;25.554;2022-10-31T13:53:18;11.60;;;6.95;;
43487;SDS011;29078;41.932;25.554;2022-10-31T13:55:43;11.52;;;8.32;;
43487;SDS011;29078;41.932;25.554;2022-10-31T13:58:27;15.40;;;10.15;;
43487;SDS011;29078;41.932;25.554;2022-10-31T14:00:58;10.10;;;6.38;;
43487;SDS011;29078;41.932;25.554;2022-10-31T14:03:24;9.88;;;6.55;;
43487;SDS011;29078;41.932;25.554;2022-10-31T14:05:53;11.05;;;6.18;;
43487;SDS011;29078;41.932;25.554;2022-10-31T14:08:21;8.00;;;5.68;;
43487;SDS011;29078;41.932;25.554;2022-10-31T14:10:49;7.57;;;5.15;;
43487;SDS011;29078;41.932;25.554;2022-10-31T14:13:28;8.23;;;4.45;;
43487;SDS011;29078;41.932;25.554;2022-10-31T14:16:01;8.73;;;4.43;;
43487;SDS011;29078;41.932;25.554;2022-10-31T14:18:36;9.15;;;5.97;;
43487;SDS011;29078;41.932;25.554;2022-10-31T14:21:26;10.35;;;7.00;;
43487;SDS011;29078;41.932;25.554;2022-10-31T14:23:54;9.15;;;6.65;;
43487;SDS011;29078;41.932;25.554;2022-10-31T14:26:29;10.48;;;6.15;;
43487;SDS011;29078;41.932;25.554;2022-10-31T14:31:30;10.27;;;5.45;;
43487;SDS011;29078;41.932;25.554;2022-10-31T14:34:21;11.18;;;6.55;;
43487;SDS011;29078;41.932;25.554;2022-10-31T14:42:33;6.05;;;4.82;;
43487;SDS011;29078;41.932;25.554;2022-10-31T14:45:05;9.68;;;7.13;;
43487;SDS011;29078;41.932;25.554;2022-10-31T14:48:00;10.57;;;7.27;;
43487;SDS011;29078;41.932;25.554;2022-10-31T14:53:18;8.68;;;7.32;;
43487;SDS011;29078;41.932;25.554;2022-10-31T14:55:50;10.48;;;7.85;;
43487;SDS011;29078;41.932;25.554;2022-10-31T14:58:35;8.73;;;5.70;;
43487;SDS011;29078;41.932;25.554;2022-10-31T15:01:15;7.38;;;5.72;;
43487;SDS011;29078;41.932;25.554;2022-10-31T15:03:53;9.55;;;6.80;;
43487;SDS011;29078;41.932;25.554;2022-10-31T15:06:23;10.25;;;7.03;;
43487;SDS011;29078;41.932;25.554;2022-10-31T15:08:51;6.15;;;5.15;;
43487;SDS011;29078;41.932;25.554;2022-10-31T15:11:27;8.07;;;6.05;;
43487;SDS011;29078;41.932;25.554;2022-10-31T15:13:56;9.18;;;5.15;;
43487;SDS011;29078;41.932;25.554;2022-10-31T15:16:24;7.18;;;5.25;;
43487;SDS011;29078;41.932;25.554;2022-10-31T15:19:04;11.07;;;5.50;;
43487;SDS011;29078;41.932;25.554;2022-10-31T15:21:32;14.43;;;7.85;;
43487;SDS011;29078;41.932;25.554;2022-10-31T15:24:00;17.85;;;8.52;;
43487;SDS011;29078;41.932;25.554;2022-10-31T15:26:27;15.68;;;8.02;;
43487;SDS011;29078;41.932;25.554;2022-10-31T15:29:01;15.15;;;9.43;;
43487;SDS011;29078;41.932;25.554;2022-10-31T15:31:28;16.55;;;9.98;;
43487;SDS011;29078;41.932;25.554;2022-10-31T15:33:55;17.00;;;9.60;;
43487;SDS011;29078;41.932;25.554;2022-10-31T15:36:27;17.33;;;10.18;;
43487;SDS011;29078;41.932;25.554;2022-10-31T15:38:52;17.48;;;10.68;;
43487;SDS011;29078;41.932;25.554;2022-10-31T15:41:29;18.90;;;12.05;;
43487;SDS011;29078;41.932;25.554;2022-10-31T15:44:03;18.77;;;10.80;;
43487;SDS011;29078;41.932;25.554;2022-10-31T15:46:37;23.35;;;12.40;;
43487;SDS011;29078;41.932;25.554;2022-10-31T15:49:03;22.63;;;10.68;;
43487;SDS011;29078;41.932;25.554;2022-10-31T15:51:30;23.70;;;11.27;;
43487;SDS011;29078;41.932;25.554;2022-10-31T15:53:58;19.77;;;10.50;;
43487;SDS011;29078;41.932;25.554;2022-10-31T15:56:26;22.63;;;13.90;;
43487;SDS011;29078;41.932;25.554;2022-10-31T15:58:54;29.55;;;14.77;;
43487;SDS011;29078;41.932;25.554;2022-10-31T16:01:30;38.58;;;13.98;;
43487;SDS011;29078;41.932;25.554;2022-10-31T16:06:35;22.45;;;12.60;;
43487;SDS011;29078;41.932;25.554;2022-10-31T16:09:00;29.33;;;14.18;;
43487;SDS011;29078;41.932;25.554;2022-10-31T16:11:29;29.27;;;14.27;;
43487;SDS011;29078;41.932;25.554;2022-10-31T16:14:00;29.38;;;13.95;;
43487;SDS011;29078;41.932;25.554;2022-10-31T16:16:26;39.60;;;15.70;;
43487;SDS011;29078;41.932;25.554;2022-10-31T16:18:53;34.95;;;15.07;;
43487;SDS011;29078;41.932;25.554;2022-10-31T16:21:24;31.30;;;15.32;;
43487;SDS011;29078;41.932;25.554;2022-10-31T16:23:55;34.60;;;14.57;;
43487;SDS011;29078;41.932;25.554;2022-10-31T16:26:29;32.65;;;15.43;;
43487;SDS011;29078;41.932;25.554;2022-10-31T16:28:56;23.55;;;11.73;;
43487;SDS011;29078;41.932;25.554;2022-10-31T16:31:30;28.55;;;12.23;;
43487;SDS011;29078;41.932;25.554;2022-10-31T16:34:15;31.33;;;13.80;;
43487;SDS011;29078;41.932;25.554;2022-10-31T16:36:50;26.77;;;13.02;;
43487;SDS011;29078;41.932;25.554;2022-10-31T16:39:15;28.77;;;11.68;;
43487;SDS011;29078;41.932;25.554;2022-10-31T16:41:43;25.92;;;13.38;;
43487;SDS011;29078;41.932;25.554;2022-10-31T16:44:22;25.98;;;13.10;;
43487;SDS011;29078;41.932;25.554;2022-10-31T16:47:07;24.05;;;13.43;;
43487;SDS011;29078;41.932;25.554;2022-10-31T16:49:34;31.73;;;14.18;;
43487;SDS011;29078;41.932;25.554;2022-10-31T16:52:00;23.42;;;12.05;;
43487;SDS011;29078;41.932;25.554;2022-10-31T16:54:25;30.27;;;17.08;;
43487;SDS011;29078;41.932;25.554;2022-10-31T16:56:50;33.08;;;15.80;;
43487;SDS011;29078;41.932;25.554;2022-10-31T16:59:16;36.15;;;17.95;;